Terminal Aerodrome Forecast
Issued by NWS

Current Version | Previous Version | Text Only | Print | Product List | Glossary Off
Versions: 1 2 3 4 5 6 7 8 9 10 11 12

000
FTUS41 KRNK 202322
TAFLWB
TAF
KLWB 202322Z 2100/2124 32007KT P6SM SKC
     FM211300 VRB03KT P6SM SKC
     FM212000 26005KT P6SM SCT150=

USA.gov is the U.S. government's official web portal to all federal, state and local government web resources and services.